sensor_id;sensor_type;location;lat;lon;timestamp;pressure;altitude;pressure_sealevel;temperature;humidity
10720;BME280;5411;58.386;15.560;2023-02-12T00:01:25;101801.00;;;-0.93;100.00
10720;BME280;5411;58.386;15.560;2023-02-12T00:03:54;101789.56;;;-0.92;100.00
10720;BME280;5411;58.386;15.560;2023-02-12T00:06:23;101791.25;;;-0.91;100.00
10720;BME280;5411;58.386;15.560;2023-02-12T00:08:54;101784.97;;;-0.88;100.00
10720;BME280;5411;58.386;15.560;2023-02-12T00:11:23;101785.91;;;-0.89;100.00
10720;BME280;5411;58.386;15.560;2023-02-12T00:13:55;101779.72;;;-0.88;100.00
10720;BME280;5411;58.386;15.560;2023-02-12T00:16:26;101778.13;;;-0.91;100.00
10720;BME280;5411;58.386;15.560;2023-02-12T00:18:55;101769.97;;;-0.86;100.00
10720;BME280;5411;58.386;15.560;2023-02-12T00:21:24;101765.66;;;-0.87;100.00
10720;BME280;5411;58.386;15.560;2023-02-12T00:23:54;101767.34;;;-0.86;100.00
10720;BME280;5411;58.386;15.560;2023-02-12T00:26:23;101762.09;;;-0.86;100.00
10720;BME280;5411;58.386;15.560;2023-02-12T00:28:52;101769.03;;;-0.85;100.00
10720;BME280;5411;58.386;15.560;2023-02-12T00:31:24;101775.97;;;-0.84;100.00
10720;BME280;5411;58.386;15.560;2023-02-12T00:33:52;101779.47;;;-0.84;100.00
10720;BME280;5411;58.386;15.560;2023-02-12T00:36:22;101782.09;;;-0.84;100.00
10720;BME280;5411;58.386;15.560;2023-02-12T00:38:52;101762.66;;;-0.81;100.00
10720;BME280;5411;58.386;15.560;2023-02-12T00:41:21;101767.72;;;-0.78;100.00
10720;BME280;5411;58.386;15.560;2023-02-12T00:43:50;101767.63;;;-0.77;100.00
10720;BME280;5411;58.386;15.560;2023-02-12T00:46:18;101761.34;;;-0.74;100.00
10720;BME280;5411;58.386;15.560;2023-02-12T00:48:48;101756.00;;;-0.73;100.00
10720;BME280;5411;58.386;15.560;2023-02-12T00:51:16;101757.59;;;-0.70;100.00
10720;BME280;5411;58.386;15.560;2023-02-12T00:53:45;101754.88;;;-0.68;100.00
10720;BME280;5411;58.386;15.560;2023-02-12T00:56:13;101749.59;;;-0.68;100.00
10720;BME280;5411;58.386;15.560;2023-02-12T00:58:41;101746.03;;;-0.67;100.00
10720;BME280;5411;58.386;15.560;2023-02-12T01:01:10;101751.09;;;-0.64;100.00
10720;BME280;5411;58.386;15.560;2023-02-12T01:03:38;101756.16;;;-0.61;100.00
10720;BME280;5411;58.386;15.560;2023-02-12T01:06:08;101762.06;;;-0.58;100.00
10720;BME280;5411;58.386;15.560;2023-02-12T01:08:36;101759.34;;;-0.56;100.00
10720;BME280;5411;58.386;15.560;2023-02-12T01:11:05;101755.69;;;-0.54;100.00
10720;BME280;5411;58.386;15.560;2023-02-12T01:13:34;101747.59;;;-0.51;100.00
10720;BME280;5411;58.386;15.560;2023-02-12T01:16:05;101744.97;;;-0.51;100.00
10720;BME280;5411;58.386;15.560;2023-02-12T01:18:37;101746.66;;;-0.50;100.00
10720;BME280;5411;58.386;15.560;2023-02-12T01:21:11;101751.72;;;-0.47;100.00
10720;BME280;5411;58.386;15.560;2023-02-12T01:23:40;101745.44;;;-0.44;100.00
10720;BME280;5411;58.386;15.560;2023-02-12T01:26:09;101752.28;;;-0.42;100.00
10720;BME280;5411;58.386;15.560;2023-02-12T01:28:38;101742.59;;;-0.41;100.00
10720;BME280;5411;58.386;15.560;2023-02-12T01:31:13;101747.75;;;-0.40;100.00
10720;BME280;5411;58.386;15.560;2023-02-12T01:33:43;101745.97;;;-0.39;100.00
10720;BME280;5411;58.386;15.560;2023-02-12T01:36:12;101745.00;;;-0.38;100.00
10720;BME280;5411;58.386;15.560;2023-02-12T01:38:41;101743.13;;;-0.36;100.00
10720;BME280;5411;58.386;15.560;2023-02-12T01:41:12;101746.63;;;-0.36;100.00
10720;BME280;5411;58.386;15.560;2023-02-12T01:43:40;101747.56;;;-0.37;100.00
10720;BME280;5411;58.386;15.560;2023-02-12T01:46:11;101752.81;;;-0.37;100.00
10720;BME280;5411;58.386;15.560;2023-02-12T01:48:42;101751.88;;;-0.36;100.00
10720;BME280;5411;58.386;15.560;2023-02-12T01:51:16;101750.09;;;-0.35;100.00
10720;BME280;5411;58.386;15.560;2023-02-12T01:53:51;101752.72;;;-0.35;100.00
10720;BME280;5411;58.386;15.560;2023-02-12T01:56:21;101744.06;;;-0.37;100.00
10720;BME280;5411;58.386;15.560;2023-02-12T01:58:51;101743.13;;;-0.36;100.00
10720;BME280;5411;58.386;15.560;2023-02-12T02:01:25;101733.78;;;-0.40;100.00
10720;BME280;5411;58.386;15.560;2023-02-12T02:03:57;101737.88;;;-0.36;100.00
10720;BME280;5411;58.386;15.560;2023-02-12T02:06:31;101738.72;;;-0.36;100.00
10720;BME280;5411;58.386;15.560;2023-02-12T02:09:02;101730.75;;;-0.34;100.00
10720;BME280;5411;58.386;15.560;2023-02-12T02:11:31;101722.84;;;-0.34;100.00
10720;BME280;5411;58.386;15.560;2023-02-12T02:14:17;101708.03;;;-0.35;100.00
10720;BME280;5411;58.386;15.560;2023-02-12T02:17:27;101710.47;;;-0.32;100.00
10720;BME280;5411;58.386;15.560;2023-02-12T02:23:44;101704.69;;;-0.24;100.00
10720;BME280;5411;58.386;15.560;2023-02-12T02:26:32;101713.31;;;-0.22;100.00
10720;BME280;5411;58.386;15.560;2023-02-12T02:29:18;101709.66;;;-0.20;100.00
10720;BME280;5411;58.386;15.560;2023-02-12T02:31:52;101702.63;;;-0.19;100.00
10720;BME280;5411;58.386;15.560;2023-02-12T02:34:28;101703.28;;;-0.16;100.00
10720;BME280;5411;58.386;15.560;2023-02-12T02:37:09;101704.97;;;-0.15;100.00
10720;BME280;5411;58.386;15.560;2023-02-12T02:39:45;101696.94;;;-0.13;100.00
10720;BME280;5411;58.386;15.560;2023-02-12T02:42:17;101699.47;;;-0.12;100.00
10720;BME280;5411;58.386;15.560;2023-02-12T02:44:52;101693.06;;;-0.08;100.00
10720;BME280;5411;58.386;15.560;2023-02-12T02:47:28;101682.47;;;-0.06;100.00
10720;BME280;5411;58.386;15.560;2023-02-12T02:50:03;101683.84;;;-0.01;100.00
10720;BME280;5411;58.386;15.560;2023-02-12T02:52:35;101687.94;;;0.04;100.00
10720;BME280;5411;58.386;15.560;2023-02-12T02:55:06;101685.22;;;0.05;100.00
10720;BME280;5411;58.386;15.560;2023-02-12T02:57:40;101685.84;;;0.09;100.00
10720;BME280;5411;58.386;15.560;2023-02-12T03:00:13;101671.56;;;0.13;100.00
10720;BME280;5411;58.386;15.560;2023-02-12T03:02:48;101676.59;;;0.16;100.00
10720;BME280;5411;58.386;15.560;2023-02-12T03:05:23;101670.19;;;0.20;100.00
10720;BME280;5411;58.386;15.560;2023-02-12T03:07:58;101669.25;;;0.21;100.00
10720;BME280;5411;58.386;15.560;2023-02-12T03:10:30;101660.09;;;0.26;100.00
10720;BME280;5411;58.386;15.560;2023-02-12T03:13:03;101661.47;;;0.32;100.00
10720;BME280;5411;58.386;15.560;2023-02-12T03:15:37;101665.69;;;0.34;100.00
10720;BME280;5411;58.386;15.560;2023-02-12T03:18:11;101667.16;;;0.39;100.00
10720;BME280;5411;58.386;15.560;2023-02-12T03:20:47;101669.56;;;0.42;100.00
10720;BME280;5411;58.386;15.560;2023-02-12T03:23:23;101668.31;;;0.47;100.00
10720;BME280;5411;58.386;15.560;2023-02-12T03:25:56;101664.63;;;0.50;100.00
10720;BME280;5411;58.386;15.560;2023-02-12T03:28:28;101666.91;;;0.54;100.00
10720;BME280;5411;58.386;15.560;2023-02-12T03:31:04;101661.56;;;0.56;100.00
10720;BME280;5411;58.386;15.560;2023-02-12T03:33:43;101663.13;;;0.58;100.00
10720;BME280;5411;58.386;15.560;2023-02-12T03:36:25;101665.56;;;0.61;100.00
10720;BME280;5411;58.386;15.560;2023-02-12T03:39:00;101656.72;;;0.62;100.00
10720;BME280;5411;58.386;15.560;2023-02-12T03:41:37;101648.19;;;0.59;100.00
10720;BME280;5411;58.386;15.560;2023-02-12T03:44:15;101649.47;;;0.66;100.00
10720;BME280;5411;58.386;15.560;2023-02-12T03:46:53;101656.28;;;0.68;100.00
10720;BME280;5411;58.386;15.560;2023-02-12T03:49:30;101662.38;;;0.69;100.00
10720;BME280;5411;58.386;15.560;2023-02-12T03:52:01;101660.50;;;0.71;100.00
10720;BME280;5411;58.386;15.560;2023-02-12T03:54:32;101656.81;;;0.74;100.00
10720;BME280;5411;58.386;15.560;2023-02-12T03:57:04;101657.44;;;0.77;100.00
10720;BME280;5411;58.386;15.560;2023-02-12T03:59:35;101670.28;;;0.82;100.00
10720;BME280;5411;58.386;15.560;2023-02-12T04:02:04;101665.75;;;0.84;100.00
10720;BME280;5411;58.386;15.560;2023-02-12T04:04:35;101671.53;;;0.89;100.00
10720;BME280;5411;58.386;15.560;2023-02-12T04:07:04;101660.78;;;0.92;100.00
10720;BME280;5411;58.386;15.560;2023-02-12T04:09:32;101663.94;;;0.97;100.00
10720;BME280;5411;58.386;15.560;2023-02-12T04:15:13;101657.50;;;1.01;100.00
10720;BME280;5411;58.386;15.560;2023-02-12T04:17:49;101657.03;;;1.07;100.00
10720;BME280;5411;58.386;15.560;2023-02-12T04:20:36;101642.91;;;1.08;100.00
10720;BME280;5411;58.386;15.560;2023-02-12T04:23:16;101641.75;;;1.12;100.00
10720;BME280;5411;58.386;15.560;2023-02-12T04:25:56;101638.91;;;1.15;100.00
10720;BME280;5411;58.386;15.560;2023-02-12T04:28:35;101646.59;;;1.18;100.00
10720;BME280;5411;58.386;15.560;2023-02-12T04:31:11;101626.97;;;1.22;100.00
10720;BME280;5411;58.386;15.560;2023-02-12T04:33:45;101631.81;;;1.28;100.00
10720;BME280;5411;58.386;15.560;2023-02-12T04:36:19;101624.53;;;1.32;100.00
10720;BME280;5411;58.386;15.560;2023-02-12T04:38:52;101623.69;;;1.31;100.00
10720;BME280;5411;58.386;15.560;2023-02-12T04:41:29;101626.56;;;1.39;100.00
10720;BME280;5411;58.386;15.560;2023-02-12T04:43:58;101636.81;;;1.44;100.00
10720;BME280;5411;58.386;15.560;2023-02-12T04:46:26;101645.31;;;1.48;100.00
10720;BME280;5411;58.386;15.560;2023-02-12T04:48:56;101648.66;;;1.50;100.00
10720;BME280;5411;58.386;15.560;2023-02-12T04:51:26;101651.09;;;1.53;100.00
10720;BME280;5411;58.386;15.560;2023-02-12T04:53:54;101650.13;;;1.54;100.00
10720;BME280;5411;58.386;15.560;2023-02-12T04:56:23;101633.03;;;1.59;100.00
10720;BME280;5411;58.386;15.560;2023-02-12T04:58:51;101642.75;;;1.59;100.00
10720;BME280;5411;58.386;15.560;2023-02-12T05:01:23;101632.56;;;1.65;100.00
10720;BME280;5411;58.386;15.560;2023-02-12T05:03:52;101645.53;;;1.68;100.00
10720;BME280;5411;58.386;15.560;2023-02-12T05:06:20;101638.34;;;1.70;100.00
10720;BME280;5411;58.386;15.560;2023-02-12T05:08:55;101632.00;;;1.73;100.00
10720;BME280;5411;58.386;15.560;2023-02-12T05:11:27;101616.88;;;1.75;100.00
10720;BME280;5411;58.386;15.560;2023-02-12T05:13:55;101623.00;;;1.75;100.00
10720;BME280;5411;58.386;15.560;2023-02-12T05:16:23;101633.34;;;1.78;100.00
10720;BME280;5411;58.386;15.560;2023-02-12T05:18:52;101624.69;;;1.76;100.00
10720;BME280;5411;58.386;15.560;2023-02-12T05:21:20;101615.59;;;1.81;100.00
10720;BME280;5411;58.386;15.560;2023-02-12T05:23:50;101615.50;;;1.82;100.00
10720;BME280;5411;58.386;15.560;2023-02-12T05:26:20;101616.09;;;1.86;100.00
10720;BME280;5411;58.386;15.560;2023-02-12T05:28:49;101622.09;;;1.88;100.00
10720;BME280;5411;58.386;15.560;2023-02-12T05:31:18;101618.50;;;1.89;100.00
10720;BME280;5411;58.386;15.560;2023-02-12T05:33:48;101620.91;;;1.92;100.00
10720;BME280;5411;58.386;15.560;2023-02-12T05:36:18;101617.31;;;1.93;100.00
10720;BME280;5411;58.386;15.560;2023-02-12T05:38:47;101615.50;;;1.93;100.00
10720;BME280;5411;58.386;15.560;2023-02-12T05:41:20;101619.72;;;1.96;100.00
10720;BME280;5411;58.386;15.560;2023-02-12T05:43:48;101608.22;;;1.97;100.00
10720;BME280;5411;58.386;15.560;2023-02-12T05:46:17;101610.59;;;2.00;100.00
10720;BME280;5411;58.386;15.560;2023-02-12T05:48:47;101613.97;;;2.02;100.00
10720;BME280;5411;58.386;15.560;2023-02-12T05:51:18;101618.28;;;2.03;100.00
10720;BME280;5411;58.386;15.560;2023-02-12T05:53:48;101631.25;;;2.06;100.00
10720;BME280;5411;58.386;15.560;2023-02-12T05:56:19;101647.94;;;2.06;100.00
10720;BME280;5411;58.386;15.560;2023-02-12T05:58:52;101641.81;;;2.06;100.00
10720;BME280;5411;58.386;15.560;2023-02-12T06:01:24;101646.03;;;2.08;100.00
10720;BME280;5411;58.386;15.560;2023-02-12T06:03:53;101652.88;;;2.11;100.00
10720;BME280;5411;58.386;15.560;2023-02-12T06:06:26;101643.16;;;2.11;100.00
10720;BME280;5411;58.386;15.560;2023-02-12T06:08:55;101660.69;;;2.12;100.00
10720;BME280;5411;58.386;15.560;2023-02-12T06:11:25;101647.50;;;2.12;100.00
10720;BME280;5411;58.386;15.560;2023-02-12T06:13:54;101643.84;;;2.13;100.00
10720;BME280;5411;58.386;15.560;2023-02-12T06:16:24;101654.31;;;2.15;100.00
10720;BME280;5411;58.386;15.560;2023-02-12T06:18:55;101649.13;;;2.13;100.00
10720;BME280;5411;58.386;15.560;2023-02-12T06:21:27;101653.47;;;2.14;100.00
10720;BME280;5411;58.386;15.560;2023-02-12T06:23:55;101655.16;;;2.15;100.00
10720;BME280;5411;58.386;15.560;2023-02-12T06:26:25;101655.25;;;2.14;100.00
10720;BME280;5411;58.386;15.560;2023-02-12T06:28:54;101666.66;;;2.14;100.00
10720;BME280;5411;58.386;15.560;2023-02-12T06:31:24;101660.53;;;2.14;100.00
10720;BME280;5411;58.386;15.560;2023-02-12T06:33:54;101660.44;;;2.15;100.00
10720;BME280;5411;58.386;15.560;2023-02-12T06:36:23;101646.38;;;2.15;100.00
10720;BME280;5411;58.386;15.560;2023-02-12T06:38:52;101646.38;;;2.15;100.00
10720;BME280;5411;58.386;15.560;2023-02-12T06:41:21;101655.03;;;2.17;100.00
10720;BME280;5411;58.386;15.560;2023-02-12T06:43:51;101640.16;;;2.16;100.00
10720;BME280;5411;58.386;15.560;2023-02-12T06:46:20;101634.66;;;2.19;100.00
10720;BME280;5411;58.386;15.560;2023-02-12T06:48:52;101629.25;;;2.21;100.00
10720;BME280;5411;58.386;15.560;2023-02-12T06:51:21;101631.66;;;2.24;100.00
10720;BME280;5411;58.386;15.560;2023-02-12T06:53:50;101630.59;;;2.26;100.00
10720;BME280;5411;58.386;15.560;2023-02-12T06:56:20;101633.94;;;2.28;100.00
10720;BME280;5411;58.386;15.560;2023-02-12T06:58:53;101640.56;;;2.34;100.00
10720;BME280;5411;58.386;15.560;2023-02-12T07:01:24;101643.81;;;2.37;100.00
10720;BME280;5411;58.386;15.560;2023-02-12T07:03:54;101649.56;;;2.42;100.00
10720;BME280;5411;58.386;15.560;2023-02-12T07:06:24;101648.38;;;2.46;100.00
10720;BME280;5411;58.386;15.560;2023-02-12T07:08:53;101642.97;;;2.48;100.00
10720;BME280;5411;58.386;15.560;2023-02-12T07:11:22;101643.22;;;2.56;100.00
10720;BME280;5411;58.386;15.560;2023-02-12T07:13:52;101636.72;;;2.60;100.00
10720;BME280;5411;58.386;15.560;2023-02-12T07:16:21;101632.19;;;2.62;100.00
10720;BME280;5411;58.386;15.560;2023-02-12T07:18:49;101631.94;;;2.65;100.00
10720;BME280;5411;58.386;15.560;2023-02-12T07:21:18;101629.31;;;2.65;100.00
10720;BME280;5411;58.386;15.560;2023-02-12T07:23:46;101634.94;;;2.72;100.00
10720;BME280;5411;58.386;15.560;2023-02-12T07:26:18;101629.41;;;2.75;100.00
10720;BME280;5411;58.386;15.560;2023-02-12T07:28:57;101633.63;;;2.77;100.00
10720;BME280;5411;58.386;15.560;2023-02-12T07:31:27;101648.38;;;2.80;100.00
10720;BME280;5411;58.386;15.560;2023-02-12T07:33:57;101638.53;;;2.82;100.00
10720;BME280;5411;58.386;15.560;2023-02-12T07:36:28;101632.16;;;2.84;100.00
10720;BME280;5411;58.386;15.560;2023-02-12T07:38:57;101633.50;;;2.90;100.00
10720;BME280;5411;58.386;15.560;2023-02-12T07:41:27;101638.38;;;2.95;100.00
10720;BME280;5411;58.386;15.560;2023-02-12T07:44:02;101625.78;;;2.98;100.00
10720;BME280;5411;58.386;15.560;2023-02-12T07:46:34;101621.09;;;3.02;100.00
10720;BME280;5411;58.386;15.560;2023-02-12T07:49:05;101625.31;;;3.04;100.00
10720;BME280;5411;58.386;15.560;2023-02-12T07:51:34;101618.06;;;3.06;100.00
10720;BME280;5411;58.386;15.560;2023-02-12T07:54:04;101619.38;;;3.12;100.00
10720;BME280;5411;58.386;15.560;2023-02-12T07:56:33;101616.50;;;3.15;100.00
10720;BME280;5411;58.386;15.560;2023-02-12T07:59:06;101616.25;;;3.18;100.00
10720;BME280;5411;58.386;15.560;2023-02-12T08:01:35;101617.44;;;3.25;100.00
10720;BME280;5411;58.386;15.560;2023-02-12T08:04:07;101627.53;;;3.31;100.00
10720;BME280;5411;58.386;15.560;2023-02-12T08:06:37;101627.25;;;3.34;100.00
10720;BME280;5411;58.386;15.560;2023-02-12T08:09:08;101611.03;;;3.39;100.00
10720;BME280;5411;58.386;15.560;2023-02-12T08:11:38;101613.28;;;3.43;100.00
10720;BME280;5411;58.386;15.560;2023-02-12T08:14:10;101614.69;;;3.47;100.00
10720;BME280;5411;58.386;15.560;2023-02-12T08:16:43;101610.84;;;3.51;100.00
10720;BME280;5411;58.386;15.560;2023-02-12T08:19:12;101611.31;;;3.56;100.00
10720;BME280;5411;58.386;15.560;2023-02-12T08:21:49;101611.03;;;3.59;100.00
10720;BME280;5411;58.386;15.560;2023-02-12T08:24:17;101618.72;;;3.63;100.00
10720;BME280;5411;58.386;15.560;2023-02-12T08:26:48;101612.81;;;3.70;100.00
10720;BME280;5411;58.386;15.560;2023-02-12T08:29:21;101609.09;;;3.73;100.00
10720;BME280;5411;58.386;15.560;2023-02-12T08:31:55;101606.03;;;3.77;100.00
10720;BME280;5411;58.386;15.560;2023-02-12T08:34:25;101603.88;;;3.82;100.00
10720;BME280;5411;58.386;15.560;2023-02-12T08:36:54;101601.66;;;3.87;100.00
10720;BME280;5411;58.386;15.560;2023-02-12T08:39:25;101600.56;;;3.90;100.00
10720;BME280;5411;58.386;15.560;2023-02-12T08:41:55;101598.97;;;3.99;100.00
10720;BME280;5411;58.386;15.560;2023-02-12T08:44:25;101594.94;;;4.04;100.00
10720;BME280;5411;58.386;15.560;2023-02-12T08:46:53;101590.81;;;4.11;100.00
10720;BME280;5411;58.386;15.560;2023-02-12T08:49:24;101597.25;;;4.18;100.00
10720;BME280;5411;58.386;15.560;2023-02-12T08:51:54;101596.88;;;4.23;100.00
10720;BME280;5411;58.386;15.560;2023-02-12T08:54:24;101596.34;;;4.29;100.00
10720;BME280;5411;58.386;15.560;2023-02-12T08:56:54;101597.50;;;4.36;100.00
10720;BME280;5411;58.386;15.560;2023-02-12T08:59:22;101597.78;;;4.43;100.00
10720;BME280;5411;58.386;15.560;2023-02-12T09:01:52;101591.84;;;4.50;100.00
10720;BME280;5411;58.386;15.560;2023-02-12T09:04:23;101566.59;;;4.56;100.00
10720;BME280;5411;58.386;15.560;2023-02-12T09:06:51;101563.19;;;4.65;100.00
10720;BME280;5411;58.386;15.560;2023-02-12T09:09:20;101558.16;;;4.72;100.00
10720;BME280;5411;58.386;15.560;2023-02-12T09:11:49;101560.16;;;4.79;100.00
10720;BME280;5411;58.386;15.560;2023-02-12T09:14:18;101556.81;;;4.87;100.00
10720;BME280;5411;58.386;15.560;2023-02-12T09:16:52;101566.03;;;4.92;100.00
10720;BME280;5411;58.386;15.560;2023-02-12T09:19:21;101566.44;;;4.97;100.00
10720;BME280;5411;58.386;15.560;2023-02-12T09:21:50;101581.00;;;5.03;100.00
10720;BME280;5411;58.386;15.560;2023-02-12T09:24:22;101576.53;;;5.04;100.00
10720;BME280;5411;58.386;15.560;2023-02-12T09:26:50;101571.75;;;5.07;100.00
10720;BME280;5411;58.386;15.560;2023-02-12T09:29:18;101581.00;;;5.13;100.00
10720;BME280;5411;58.386;15.560;2023-02-12T09:31:46;101572.50;;;5.19;100.00
10720;BME280;5411;58.386;15.560;2023-02-12T09:34:16;101562.44;;;5.22;100.00
10720;BME280;5411;58.386;15.560;2023-02-12T09:36:45;101563.00;;;5.26;100.00
10720;BME280;5411;58.386;15.560;2023-02-12T09:39:14;101553.81;;;5.30;100.00
10720;BME280;5411;58.386;15.560;2023-02-12T09:44:47;101567.47;;;5.35;100.00
10720;BME280;5411;58.386;15.560;2023-02-12T09:47:26;101583.25;;;5.36;100.00
10720;BME280;5411;58.386;15.560;2023-02-12T09:50:16;101573.63;;;5.35;100.00
10720;BME280;5411;58.386;15.560;2023-02-12T09:52:50;101572.38;;;5.40;100.00
10720;BME280;5411;58.386;15.560;2023-02-12T09:55:21;101576.13;;;5.47;100.00
10720;BME280;5411;58.386;15.560;2023-02-12T09:57:53;101581.72;;;5.53;100.00
10720;BME280;5411;58.386;15.560;2023-02-12T10:00:24;101587.59;;;5.57;100.00
10720;BME280;5411;58.386;15.560;2023-02-12T10:03:00;101585.34;;;5.62;100.00
10720;BME280;5411;58.386;15.560;2023-02-12T10:05:36;101575.28;;;5.65;100.00
10720;BME280;5411;58.386;15.560;2023-02-12T10:08:19;101582.72;;;5.71;100.00
10720;BME280;5411;58.386;15.560;2023-02-12T10:10:52;101579.47;;;5.78;100.00
10720;BME280;5411;58.386;15.560;2023-02-12T10:13:34;101579.75;;;5.84;100.00
10720;BME280;5411;58.386;15.560;2023-02-12T10:16:09;101578.38;;;5.90;100.00
10720;BME280;5411;58.386;15.560;2023-02-12T10:19:07;101582.28;;;5.95;100.00
10720;BME280;5411;58.386;15.560;2023-02-12T10:21:49;101582.53;;;6.02;100.00
10720;BME280;5411;58.386;15.560;2023-02-12T10:24:43;101578.06;;;6.12;100.00
10720;BME280;5411;58.386;15.560;2023-02-12T10:27:16;101579.84;;;6.21;100.00
10720;BME280;5411;58.386;15.560;2023-02-12T10:29:48;101572.81;;;6.30;100.00
10720;BME280;5411;58.386;15.560;2023-02-12T10:32:23;101573.94;;;6.37;100.00
10720;BME280;5411;58.386;15.560;2023-02-12T10:34:52;101572.34;;;6.44;100.00
10720;BME280;5411;58.386;15.560;2023-02-12T10:37:30;101571.22;;;6.47;100.00
10720;BME280;5411;58.386;15.560;2023-02-12T10:40:09;101561.97;;;6.51;100.00
10720;BME280;5411;58.386;15.560;2023-02-12T10:42:44;101580.13;;;6.55;100.00
10720;BME280;5411;58.386;15.560;2023-02-12T10:45:15;101561.09;;;6.60;100.00
10720;BME280;5411;58.386;15.560;2023-02-12T10:47:45;101560.19;;;6.69;100.00
10720;BME280;5411;58.386;15.560;2023-02-12T10:50:18;101568.28;;;6.77;100.00
10720;BME280;5411;58.386;15.560;2023-02-12T10:52:53;101554.38;;;6.83;100.00
10720;BME280;5411;58.386;15.560;2023-02-12T10:55:26;101558.00;;;6.92;100.00
10720;BME280;5411;58.386;15.560;2023-02-12T10:57:56;101565.75;;;7.03;100.00
10720;BME280;5411;58.386;15.560;2023-02-12T11:00:28;101558.38;;;7.14;100.00
10720;BME280;5411;58.386;15.560;2023-02-12T11:03:03;101559.16;;;7.25;100.00
10720;BME280;5411;58.386;15.560;2023-02-12T11:05:34;101553.88;;;7.33;100.00
10720;BME280;5411;58.386;15.560;2023-02-12T11:08:06;101558.31;;;7.42;100.00
10720;BME280;5411;58.386;15.560;2023-02-12T11:10:37;101566.53;;;7.48;100.00
10720;BME280;5411;58.386;15.560;2023-02-12T11:13:22;101564.69;;;7.49;100.00
10720;BME280;5411;58.386;15.560;2023-02-12T11:15:52;101558.22;;;7.51;100.00
10720;BME280;5411;58.386;15.560;2023-02-12T11:18:23;101562.78;;;7.59;100.00
10720;BME280;5411;58.386;15.560;2023-02-12T11:20:55;101569.44;;;7.55;100.00
10720;BME280;5411;58.386;15.560;2023-02-12T11:23:27;101573.81;;;7.64;100.00
10720;BME280;5411;58.386;15.560;2023-02-12T11:25:59;101579.00;;;7.66;100.00
10720;BME280;5411;58.386;15.560;2023-02-12T11:28:29;101572.38;;;7.70;100.00
10720;BME280;5411;58.386;15.560;2023-02-12T11:30:59;101568.53;;;7.72;100.00
10720;BME280;5411;58.386;15.560;2023-02-12T11:33:30;101560.06;;;7.69;100.00
10720;BME280;5411;58.386;15.560;2023-02-12T11:36:03;101568.34;;;7.66;100.00
10720;BME280;5411;58.386;15.560;2023-02-12T11:38:37;101560.28;;;7.58;100.00
10720;BME280;5411;58.386;15.560;2023-02-12T11:41:20;101565.44;;;7.59;100.00
10720;BME280;5411;58.386;15.560;2023-02-12T11:43:50;101546.50;;;7.62;100.00
10720;BME280;5411;58.386;15.560;2023-02-12T11:46:21;101544.38;;;7.66;100.00
10720;BME280;5411;58.386;15.560;2023-02-12T11:48:52;101557.25;;;7.70;100.00
10720;BME280;5411;58.386;15.560;2023-02-12T11:51:25;101549.91;;;7.72;100.00
10720;BME280;5411;58.386;15.560;2023-02-12T11:53:59;101561.41;;;7.73;100.00
10720;BME280;5411;58.386;15.560;2023-02-12T11:56:40;101554.31;;;7.81;100.00
10720;BME280;5411;58.386;15.560;2023-02-12T11:59:16;101552.69;;;7.88;100.00
10720;BME280;5411;58.386;15.560;2023-02-12T12:01:50;101554.91;;;7.93;99.83
10720;BME280;5411;58.386;15.560;2023-02-12T12:04:22;101559.25;;;7.94;99.24
10720;BME280;5411;58.386;15.560;2023-02-12T12:06:55;101554.53;;;7.88;99.62
10720;BME280;5411;58.386;15.560;2023-02-12T12:09:32;101562.31;;;7.81;100.00
10720;BME280;5411;58.386;15.560;2023-02-12T12:12:09;101559.25;;;7.76;100.00
10720;BME280;5411;58.386;15.560;2023-02-12T12:14:43;101559.13;;;7.78;100.00
10720;BME280;5411;58.386;15.560;2023-02-12T12:17:39;101544.13;;;7.77;100.00
10720;BME280;5411;58.386;15.560;2023-02-12T12:20:28;101552.25;;;7.75;100.00
10720;BME280;5411;58.386;15.560;2023-02-12T12:23:01;101545.09;;;7.76;100.00
10720;BME280;5411;58.386;15.560;2023-02-12T12:25:39;101543.28;;;7.76;100.00
10720;BME280;5411;58.386;15.560;2023-02-12T12:28:24;101541.44;;;7.77;100.00
10720;BME280;5411;58.386;15.560;2023-02-12T12:31:05;101554.78;;;7.77;100.00
10720;BME280;5411;58.386;15.560;2023-02-12T12:33:40;101545.25;;;7.74;100.00
10720;BME280;5411;58.386;15.560;2023-02-12T12:36:50;101546.72;;;7.69;100.00
10720;BME280;5411;58.386;15.560;2023-02-12T12:39:28;101545.22;;;7.66;100.00
10720;BME280;5411;58.386;15.560;2023-02-12T12:45:33;101549.16;;;7.62;100.00
10720;BME280;5411;58.386;15.560;2023-02-12T12:48:18;101549.66;;;7.58;100.00
10720;BME280;5411;58.386;15.560;2023-02-12T12:51:05;101534.50;;;7.58;100.00
10720;BME280;5411;58.386;15.560;2023-02-12T12:53:50;101543.47;;;7.57;100.00
10720;BME280;5411;58.386;15.560;2023-02-12T12:56:32;101547.13;;;7.56;100.00
10720;BME280;5411;58.386;15.560;2023-02-12T12:59:31;101538.59;;;7.53;100.00
10720;BME280;5411;58.386;15.560;2023-02-12T13:05:46;101544.78;;;7.53;100.00
10720;BME280;5411;58.386;15.560;2023-02-12T13:08:35;101543.47;;;7.57;100.00
10720;BME280;5411;58.386;15.560;2023-02-12T13:11:13;101540.81;;;7.57;100.00
10720;BME280;5411;58.386;15.560;2023-02-12T13:13:51;101540.81;;;7.57;100.00
10720;BME280;5411;58.386;15.560;2023-02-12T13:16:28;101541.81;;;7.56;100.00
10720;BME280;5411;58.386;15.560;2023-02-12T13:19:02;101539.28;;;7.55;100.00
10720;BME280;5411;58.386;15.560;2023-02-12T13:21:39;101529.63;;;7.54;100.00
10720;BME280;5411;58.386;15.560;2023-02-12T13:24:21;101534.13;;;7.53;100.00
10720;BME280;5411;58.386;15.560;2023-02-12T13:26:54;101535.50;;;7.57;100.00
10720;BME280;5411;58.386;15.560;2023-02-12T13:29:26;101523.16;;;7.56;100.00
10720;BME280;5411;58.386;15.560;2023-02-12T13:31:59;101522.78;;;7.51;100.00
10720;BME280;5411;58.386;15.560;2023-02-12T13:34:31;101516.47;;;7.52;100.00